Time;durP1;ratioP1;P1;durP2;ratioP2;P2;SDS_P1;SDS_P2;PMS_P1;PMS_P2;Temp;Humidity;BMP_temperature;BMP_pressure;BME280_temperature;BME280_humidity;BME280_pressure;Samples;Min_cycle;Max_cycle;Signal;HPM_P1;HPM_P2
2023/04/09 00:02:15;;;;;;;2.75;1.50;;;14.90;68.00;;;;;;6401022;22;20488;-78
2023/04/09 00:04:40;;;;;;;2.22;1.38;;;14.90;68.10;;;;;;6400596;22;19998;-78
2023/04/09 00:07:06;;;;;;;1.23;1.10;;;14.90;68.10;;;;;;6400075;22;20431;-77
2023/04/09 00:09:32;;;;;;;2.35;1.25;;;14.90;68.10;;;;;;6400585;22;20021;-79
2023/04/09 00:11:57;;;;;;;2.65;1.58;;;14.90;68.10;;;;;;6400608;22;19998;-79
2023/04/09 00:14:23;;;;;;;3.42;1.33;;;14.90;68.60;;;;;;6399813;22;20343;-79
2023/04/09 00:16:49;;;;;;;2.15;1.63;;;14.90;69.10;;;;;;6399424;22;20002;-80
2023/04/09 00:19:15;;;;;;;1.25;1.08;;;14.90;69.20;;;;;;6400490;22;20004;-79
2023/04/09 00:21:41;;;;;;;2.53;1.80;;;14.90;68.60;;;;;;6400833;22;19994;-79
2023/04/09 00:24:07;;;;;;;1.60;1.20;;;14.70;68.20;;;;;;6400078;22;20015;-79
2023/04/09 00:26:32;;;;;;;1.60;1.50;;;14.60;68.50;;;;;;6400998;22;19994;-79
2023/04/09 00:28:58;;;;;;;1.52;1.20;;;14.60;68.90;;;;;;6372281;22;20319;-79
2023/04/09 00:31:24;;;;;;;1.50;1.40;;;14.50;69.80;;;;;;6402284;22;19998;-79
2023/04/09 00:33:50;;;;;;;3.72;1.52;;;14.50;69.30;;;;;;6403427;22;19994;-79
2023/04/09 00:36:16;;;;;;;4.53;1.83;;;14.40;69.60;;;;;;6403024;22;20077;-79
2023/04/09 00:38:41;;;;;;;1.55;1.20;;;14.40;69.40;;;;;;6374173;22;20380;-79
2023/04/09 00:41:07;;;;;;;2.35;1.50;;;14.40;69.50;;;;;;6402613;22;20315;-79
2023/04/09 00:43:33;;;;;;;1.88;1.20;;;14.50;70.20;;;;;;6402851;22;20012;-79
2023/04/09 00:45:59;;;;;;;2.45;1.73;;;14.60;70.50;;;;;;6402505;22;20073;-79
2023/04/09 00:48:25;;;;;;;2.60;1.55;;;14.60;70.40;;;;;;6402620;22;20006;-79
2023/04/09 00:50:51;;;;;;;4.03;2.10;;;14.60;70.30;;;;;;6403201;22;19998;-79
2023/04/09 00:53:17;;;;;;;2.75;2.20;;;14.60;70.20;;;;;;6402241;22;20507;-79
2023/04/09 00:55:44;;;;;;;2.63;2.15;;;14.60;70.10;;;;;;6402696;22;20077;-79
2023/04/09 00:58:10;;;;;;;3.17;2.03;;;14.60;70.40;;;;;;6402209;22;20489;-78
2023/04/09 01:00:36;;;;;;;3.22;2.58;;;14.60;70.00;;;;;;6402592;22;20006;-78
2023/04/09 01:03:03;;;;;;;3.40;2.83;;;14.60;69.90;;;;;;6402257;22;20060;-78
2023/04/09 01:06:10;;;;;;;4.50;2.40;;;14.60;69.80;;;;;;6402349;22;20005;-78
2023/04/09 01:09:00;;;;;;;5.35;2.67;;;14.50;70.00;;;;;;6402513;22;20108;-78
2023/04/09 01:12:10;;;;;;;3.75;2.70;;;14.50;70.30;;;;;;6401724;22;20108;-77
2023/04/09 01:15:04;;;;;;;4.18;3.35;;;14.50;70.60;;;;;;6327834;22;20014;-78
2023/04/09 01:17:57;;;;;;;3.65;2.60;;;14.50;70.60;;;;;;6402864;22;20058;-77
2023/04/09 01:21:09;;;;;;;4.45;2.83;;;14.50;71.00;;;;;;6402015;22;20005;-77
2023/04/09 01:24:08;;;;;;;3.85;3.08;;;14.50;71.10;;;;;;6394332;22;20002;-77
2023/04/09 01:26:53;;;;;;;3.88;3.20;;;14.50;71.30;;;;;;6401451;22;20005;-77
2023/04/09 01:29:21;;;;;;;4.22;3.33;;;14.50;71.40;;;;;;6402091;22;20005;-77
2023/04/09 01:31:48;;;;;;;4.45;3.97;;;14.40;71.40;;;;;;6401917;22;19994;-77
2023/04/09 01:34:15;;;;;;;6.47;4.00;;;14.40;71.50;;;;;;6402429;22;19994;-77
2023/04/09 01:36:43;;;;;;;6.53;4.00;;;14.40;71.40;;;;;;6402048;22;20001;-77
2023/04/09 01:39:09;;;;;;;4.03;3.63;;;14.30;71.50;;;;;;6401816;22;20071;-77
2023/04/09 01:41:36;;;;;;;4.95;3.67;;;14.30;71.80;;;;;;6401517;22;19998;-78
2023/04/09 01:44:03;;;;;;;5.30;4.07;;;14.30;72.60;;;;;;6401612;22;20238;-78
2023/04/09 01:46:30;;;;;;;5.93;4.78;;;14.30;72.30;;;;;;6402356;22;20005;-78
2023/04/09 01:48:56;;;;;;;6.95;4.63;;;14.30;72.30;;;;;;6402969;22;20412;-78
2023/04/09 01:51:23;;;;;;;5.13;4.30;;;14.30;72.00;;;;;;6373611;22;20432;-78
2023/04/09 01:53:49;;;;;;;5.18;4.45;;;14.30;72.10;;;;;;6402623;22;19998;-78
2023/04/09 01:56:14;;;;;;;7.15;4.43;;;14.30;72.20;;;;;;6401406;22;20043;-78
2023/04/09 01:58:40;;;;;;;6.18;4.60;;;14.30;72.10;;;;;;6402229;22;20459;-78
2023/04/09 02:01:19;;;;;;;5.65;4.68;;;14.30;72.30;;;;;;6401539;22;20002;-78
2023/04/09 02:03:55;;;;;;;5.95;4.75;;;14.30;72.20;;;;;;6402518;22;20008;-78
2023/04/09 02:06:30;;;;;;;6.10;4.78;;;14.30;72.40;;;;;;6401283;22;20005;-77
2023/04/09 02:08:59;;;;;;;4.97;4.47;;;14.30;72.30;;;;;;6402506;22;20006;-78
2023/04/09 02:11:27;;;;;;;6.30;4.80;;;14.20;72.20;;;;;;6400716;22;19998;-78
2023/04/09 02:13:55;;;;;;;6.88;5.00;;;14.20;72.20;;;;;;6402017;22;20124;-78
2023/04/09 02:16:22;;;;;;;6.57;5.30;;;14.20;72.20;;;;;;6401314;22;20081;-78
2023/04/09 02:19:00;;;;;;;6.47;5.15;;;14.20;72.20;;;;;;6401945;22;19998;-78
2023/04/09 02:21:27;;;;;;;6.43;4.93;;;14.20;72.40;;;;;;6401224;22;20011;-78
2023/04/09 02:23:54;;;;;;;5.45;4.45;;;14.10;72.50;;;;;;6401981;22;20021;-79
2023/04/09 02:26:20;;;;;;;7.07;4.93;;;14.10;72.70;;;;;;6401339;22;20002;-78
2023/04/09 02:28:46;;;;;;;5.05;4.55;;;14.10;72.50;;;;;;6401744;22;20010;-78
2023/04/09 02:31:11;;;;;;;6.95;4.72;;;14.10;72.60;;;;;;6401309;22;20396;-78
2023/04/09 02:33:37;;;;;;;5.28;4.55;;;14.10;72.50;;;;;;6402200;22;20025;-78
2023/04/09 02:36:03;;;;;;;5.40;4.63;;;14.10;72.70;;;;;;6401656;22;19998;-78
2023/04/09 02:38:29;;;;;;;4.45;3.53;;;14.00;72.20;;;;;;6373886;22;20058;-79
2023/04/09 02:40:55;;;;;;;5.65;4.05;;;14.00;72.20;;;;;;6400792;22;20513;-79
2023/04/09 02:43:21;;;;;;;5.13;3.70;;;14.00;71.90;;;;;;6400961;22;20053;-79
2023/04/09 02:45:46;;;;;;;4.10;3.50;;;14.00;71.90;;;;;;6399957;22;20027;-80
2023/04/09 02:48:12;;;;;;;3.65;3.00;;;13.90;71.60;;;;;;6401030;22;19998;-79
2023/04/09 02:50:37;;;;;;;4.43;3.42;;;13.90;71.40;;;;;;6401541;22;19994;-79
2023/04/09 02:53:03;;;;;;;5.28;4.03;;;13.80;71.60;;;;;;6400563;22;19997;-80
2023/04/09 02:55:29;;;;;;;5.07;3.50;;;13.80;71.80;;;;;;6400989;22;20100;-79
2023/04/09 02:57:55;;;;;;;4.75;3.75;;;13.70;72.20;;;;;;6372841;22;20009;-79
2023/04/09 03:00:20;;;;;;;4.05;3.53;;;13.80;72.00;;;;;;6401205;22;20021;-79
2023/04/09 03:02:46;;;;;;;4.30;3.70;;;13.80;72.10;;;;;;6401970;22;19998;-79
2023/04/09 03:05:11;;;;;;;4.35;3.78;;;13.70;72.20;;;;;;6400292;22;20412;-79
2023/04/09 03:07:37;;;;;;;4.28;3.50;;;13.70;72.30;;;;;;6401307;22;20438;-79
2023/04/09 03:10:03;;;;;;;4.20;3.45;;;13.70;72.30;;;;;;6401295;22;20396;-79
2023/04/09 03:12:29;;;;;;;4.07;3.35;;;;;;;;;;6400446;22;19994;-79
2023/04/09 03:14:55;;;;;;;3.40;3.10;;;13.70;71.90;;;;;;6401083;22;20074;-79
2023/04/09 03:17:20;;;;;;;4.50;3.53;;;13.70;72.50;;;;;;6400829;22;20006;-79
2023/04/09 03:19:46;;;;;;;3.72;3.30;;;13.70;72.50;;;;;;6401173;22;20009;-79
2023/04/09 03:22:12;;;;;;;4.13;3.17;;;13.70;72.40;;;;;;6400815;22;20005;-79
2023/04/09 03:24:37;;;;;;;5.22;3.55;;;13.70;72.50;;;;;;6401559;22;20055;-79
2023/04/09 03:27:03;;;;;;;4.70;3.13;;;13.70;72.50;;;;;;6400541;22;20077;-79
2023/04/09 03:29:29;;;;;;;4.47;3.17;;;13.70;72.80;;;;;;6400837;22;19998;-79
2023/04/09 03:31:54;;;;;;;3.33;2.78;;;13.70;72.70;;;;;;6401623;22;19993;-80
2023/04/09 03:34:20;;;;;;;4.00;3.55;;;13.60;72.60;;;;;;6400738;22;20686;-80
2023/04/09 03:36:46;;;;;;;4.13;2.60;;;13.60;72.70;;;;;;6401157;22;20328;-80
2023/04/09 03:39:11;;;;;;;3.47;2.67;;;13.60;72.20;;;;;;6401123;22;20072;-80
2023/04/09 03:41:37;;;;;;;4.43;3.00;;;13.60;72.30;;;;;;6399792;22;20491;-80
2023/04/09 03:44:03;;;;;;;3.50;3.20;;;13.60;72.20;;;;;;6400801;22;20026;-80
2023/04/09 03:46:28;;;;;;;3.47;2.47;;;13.50;72.10;;;;;;6373453;22;20332;-81
2023/04/09 03:48:54;;;;;;;3.97;2.33;;;13.50;72.00;;;;;;6401047;22;19998;-81
2023/04/09 03:51:20;;;;;;;2.72;2.10;;;13.50;72.40;;;;;;6400997;22;20001;-81
2023/04/09 03:53:45;;;;;;;3.78;2.13;;;13.50;72.30;;;;;;6401136;22;19990;-80
2023/04/09 03:56:11;;;;;;;1.65;1.50;;;13.40;72.00;;;;;;6400242;22;20031;-80
2023/04/09 03:58:36;;;;;;;1.52;1.38;;;13.40;71.70;;;;;;6401014;22;20046;-80
2023/04/09 04:01:02;;;;;;;1.90;1.60;;;13.20;70.90;;;;;;6400975;22;20463;-78
2023/04/09 04:03:28;;;;;;;2.45;1.75;;;13.40;71.40;;;;;;6400553;22;20285;-78
2023/04/09 04:06:00;;;;;;;1.95;1.50;;;13.40;71.30;;;;;;6400403;22;20024;-78
2023/04/09 04:08:25;;;;;;;1.48;1.38;;;13.40;70.90;;;;;;6400282;22;20044;-78
2023/04/09 04:10:51;;;;;;;1.52;1.40;;;13.30;70.50;;;;;;6400251;22;20024;-78
2023/04/09 04:13:16;;;;;;;1.63;1.42;;;13.40;70.70;;;;;;6372286;22;20010;-78
2023/04/09 04:15:42;;;;;;;1.40;1.27;;;13.30;70.90;;;;;;6400990;22;20005;-78
2023/04/09 04:18:09;;;;;;;1.67;1.38;;;13.30;71.10;;;;;;6400889;22;20074;-79
2023/04/09 04:20:36;;;;;;;1.55;1.40;;;13.40;71.10;;;;;;6401193;22;19998;-78
2023/04/09 04:23:02;;;;;;;1.60;1.35;;;13.40;70.80;;;;;;6400701;22;20002;-78
2023/04/09 04:25:27;;;;;;;1.27;1.17;;;13.40;70.80;;;;;;6399722;22;20035;-78
2023/04/09 04:27:54;;;;;;;1.88;1.55;;;13.40;70.80;;;;;;6398999;22;20006;-78
2023/04/09 04:30:20;;;;;;;1.25;1.15;;;13.40;70.60;;;;;;6400871;22;20419;-78
2023/04/09 04:32:47;;;;;;;2.75;1.40;;;13.30;70.50;;;;;;6401067;22;19998;-78
2023/04/09 04:35:12;;;;;;;2.95;1.13;;;13.30;70.70;;;;;;6400352;22;20086;-78
2023/04/09 04:37:39;;;;;;;1.38;1.27;;;13.30;70.70;;;;;;6401083;22;20022;-79
2023/04/09 04:40:08;;;;;;;1.13;1.02;;;13.40;70.20;;;;;;6400502;22;19998;-79
2023/04/09 04:42:34;;;;;;;1.33;1.20;;;13.40;70.00;;;;;;6401090;22;20427;-79
2023/04/09 04:45:00;;;;;;;1.10;1.00;;;13.40;70.10;;;;;;6400293;22;20044;-78
2023/04/09 04:47:26;;;;;;;2.05;1.42;;;13.40;69.60;;;;;;6400213;22;20363;-78
2023/04/09 04:49:52;;;;;;;1.20;1.10;;;13.40;70.00;;;;;;6401218;22;20002;-79
2023/04/09 04:52:17;;;;;;;1.08;0.98;;;13.30;69.60;;;;;;6372422;22;20022;-79
2023/04/09 04:54:43;;;;;;;2.35;1.27;;;13.30;69.60;;;;;;6400747;22;19994;-78
2023/04/09 04:57:09;;;;;;;1.17;1.08;;;13.30;69.70;;;;;;6400574;22;20001;-79
2023/04/09 04:59:39;;;;;;;2.92;1.42;;;13.30;70.20;;;;;;6372183;22;20446;-79
2023/04/09 05:02:05;;;;;;;1.58;1.42;;;13.30;70.20;;;;;;6372327;22;20443;-79
2023/04/09 05:04:31;;;;;;;2.28;1.30;;;13.30;70.10;;;;;;6400595;22;19998;-79
2023/04/09 05:06:57;;;;;;;1.20;1.08;;;13.30;70.10;;;;;;6400425;22;20069;-77
2023/04/09 05:09:22;;;;;;;1.30;1.20;;;13.30;70.10;;;;;;6400611;22;20069;-78
2023/04/09 05:11:48;;;;;;;1.60;1.10;;;13.30;69.50;;;;;;6400309;22;20033;-80
2023/04/09 05:14:13;;;;;;;1.52;1.20;;;13.30;69.80;;;;;;6399532;22;20010;-80
2023/04/09 05:16:39;;;;;;;1.20;1.10;;;13.40;69.90;;;;;;6400587;22;20111;-80
2023/04/09 05:19:05;;;;;;;1.10;1.00;;;13.40;69.30;;;;;;6402130;22;20162;-80
2023/04/09 05:21:30;;;;;;;0.90;0.90;;;13.40;69.60;;;;;;6402506;22;19998;-80
2023/04/09 05:23:56;;;;;;;1.45;1.20;;;13.30;69.10;;;;;;6402827;22;20427;-80
2023/04/09 05:26:22;;;;;;;1.50;1.17;;;13.30;69.60;;;;;;6402384;22;20055;-79
2023/04/09 05:28:48;;;;;;;1.15;1.05;;;13.30;69.80;;;;;;6402164;22;20023;-79
2023/04/09 05:31:14;;;;;;;1.25;1.15;;;13.30;69.60;;;;;;6400295;22;20034;-79
2023/04/09 05:33:40;;;;;;;1.45;1.20;;;13.20;69.70;;;;;;6402099;22;19998;-80
2023/04/09 05:36:06;;;;;;;1.33;1.20;;;13.30;69.90;;;;;;6401156;22;19994;-78
2023/04/09 05:38:33;;;;;;;1.23;1.08;;;13.30;69.80;;;;;;6401812;22;20072;-79
2023/04/09 05:40:59;;;;;;;1.45;1.35;;;13.30;69.60;;;;;;6400148;22;20001;-80
2023/04/09 05:43:25;;;;;;;2.60;0.98;;;13.30;69.60;;;;;;6401092;22;20002;-81
2023/04/09 05:45:50;;;;;;;1.60;1.10;;;13.30;69.80;;;;;;6402292;22;20002;-78
2023/04/09 05:48:17;;;;;;;1.10;1.00;;;13.30;69.80;;;;;;6401009;22;20008;-78
2023/04/09 05:50:49;;;;;;;1.88;1.20;;;13.30;69.90;;;;;;6401029;22;19998;-78
2023/04/09 05:53:15;;;;;;;3.67;1.15;;;13.40;69.90;;;;;;6373023;22;20036;-80
2023/04/09 05:55:41;;;;;;;1.50;1.13;;;13.40;69.90;;;;;;6401714;22;20002;-80
2023/04/09 05:58:06;;;;;;;1.23;1.13;;;13.50;69.80;;;;;;6401175;22;20420;-81
2023/04/09 06:00:32;;;;;;;1.15;1.05;;;13.60;69.60;;;;;;6401556;22;20288;-80
2023/04/09 06:02:57;;;;;;;1.23;1.13;;;13.60;69.70;;;;;;6401617;22;20372;-81
2023/04/09 06:05:23;;;;;;;1.25;1.08;;;13.60;69.20;;;;;;6401167;22;20006;-81
2023/04/09 06:07:49;;;;;;;0.93;0.90;;;13.70;68.80;;;;;;6401456;22;20085;-80
2023/04/09 06:10:15;;;;;;;2.13;1.05;;;13.60;68.50;;;;;;6401781;22;20017;-80
2023/04/09 06:12:41;;;;;;;0.95;0.80;;;13.60;67.60;;;;;;6401537;22;20353;-80
2023/04/09 06:15:06;;;;;;;1.15;0.98;;;13.70;68.00;;;;;;6399936;22;20018;-81
2023/04/09 06:17:32;;;;;;;0.98;0.90;;;13.70;67.10;;;;;;6400808;22;20075;-80
2023/04/09 06:19:58;;;;;;;1.10;1.00;;;13.70;67.50;;;;;;6400267;22;20318;-80
2023/04/09 06:22:23;;;;;;;0.70;0.70;;;13.80;67.40;;;;;;6400731;22;20010;-80
2023/04/09 06:24:49;;;;;;;1.30;1.02;;;13.80;67.40;;;;;;6400756;22;20403;-80
2023/04/09 06:27:15;;;;;;;0.68;0.60;;;13.80;66.60;;;;;;6400359;22;20077;-81
2023/04/09 06:29:40;;;;;;;1.15;0.93;;;13.80;66.10;;;;;;6399003;22;19998;-81
2023/04/09 06:32:06;;;;;;;1.10;1.00;;;13.90;66.50;;;;;;6371317;22;20006;-80
2023/04/09 06:34:31;;;;;;;0.95;0.70;;;13.90;65.20;;;;;;6401739;22;20027;-81
2023/04/09 06:36:57;;;;;;;0.88;0.82;;;;;;;;;;6401452;22;20320;-81
2023/04/09 06:39:23;;;;;;;1.00;0.88;;;13.90;65.10;;;;;;6399337;22;20053;-80
2023/04/09 06:41:49;;;;;;;1.15;0.90;;;13.90;65.70;;;;;;6400692;22;20400;-80
2023/04/09 06:44:15;;;;;;;1.25;0.95;;;14.00;65.70;;;;;;6400250;22;20460;-81
2023/04/09 06:46:40;;;;;;;1.00;0.90;;;14.00;65.50;;;;;;6400659;22;20001;-80
2023/04/09 06:49:06;;;;;;;0.85;0.80;;;14.00;65.60;;;;;;6400309;22;20099;-81
2023/04/09 06:51:31;;;;;;;0.75;0.75;;;14.00;65.50;;;;;;6400599;22;20001;-81
2023/04/09 06:53:57;;;;;;;2.20;1.10;;;14.00;65.30;;;;;;6400684;22;20050;-81
2023/04/09 06:56:23;;;;;;;1.00;0.90;;;14.00;64.30;;;;;;6400474;22;20009;-83
2023/04/09 06:58:48;;;;;;;0.70;0.70;;;14.00;65.00;;;;;;6401443;22;20005;-81
2023/04/09 07:01:16;;;;;;;1.27;1.15;;;14.00;65.00;;;;;;6399911;22;20388;-84
2023/04/09 07:03:41;;;;;;;1.10;1.00;;;14.10;64.70;;;;;;6401200;22;20006;-83
2023/04/09 07:06:07;;;;;;;1.38;0.93;;;14.10;64.30;;;;;;6400972;22;20481;-77
2023/04/09 07:08:33;;;;;;;1.30;1.08;;;14.10;64.10;;;;;;6400007;22;20001;-77
2023/04/09 07:10:58;;;;;;;3.28;0.90;;;14.10;64.00;;;;;;6401629;22;19998;-77
2023/04/09 07:13:24;;;;;;;0.73;0.70;;;14.10;64.00;;;;;;6400031;22;20037;-77
2023/04/09 07:15:50;;;;;;;1.77;1.10;;;14.20;63.30;;;;;;6399165;22;20642;-77
2023/04/09 07:18:15;;;;;;;0.82;0.80;;;14.10;63.70;;;;;;6400509;22;20375;-76
2023/04/09 07:20:41;;;;;;;0.98;0.88;;;14.20;63.50;;;;;;6401358;22;20029;-77
2023/04/09 07:23:07;;;;;;;1.20;1.05;;;14.30;62.90;;;;;;6400820;22;20026;-77
2023/04/09 07:25:32;;;;;;;1.77;0.95;;;14.20;63.20;;;;;;6401255;22;20005;-77
2023/04/09 07:27:58;;;;;;;1.30;0.90;;;14.30;62.60;;;;;;6400455;22;20720;-77
2023/04/09 07:30:24;;;;;;;0.85;0.70;;;14.30;62.90;;;;;;6401190;22;20652;-78
2023/04/09 07:32:50;;;;;;;1.23;1.00;;;14.30;62.70;;;;;;6400871;22;20073;-77
2023/04/09 07:35:17;;;;;;;0.70;0.70;;;14.30;62.90;;;;;;6372632;22;20002;-77
2023/04/09 07:37:43;;;;;;;0.80;0.80;;;14.30;62.70;;;;;;6397888;22;20377;-76
2023/04/09 07:40:08;;;;;;;1.00;0.90;;;14.40;62.20;;;;;;6398976;22;20005;-77
2023/04/09 07:42:37;;;;;;;1.23;0.70;;;14.30;61.70;;;;;;6401408;22;19998;-77
2023/04/09 07:45:03;;;;;;;0.73;0.73;;;14.40;62.00;;;;;;6400199;22;19998;-77
2023/04/09 07:47:30;;;;;;;0.80;0.80;;;14.50;61.50;;;;;;6401038;22;20012;-77
2023/04/09 07:49:55;;;;;;;1.63;0.93;;;14.50;61.40;;;;;;6395509;22;20147;-76
2023/04/09 07:52:21;;;;;;;2.28;1.05;;;14.60;61.20;;;;;;6400348;22;20436;-78
2023/04/09 07:54:46;;;;;;;1.13;0.98;;;14.70;60.70;;;;;;6400013;22;20396;-78
2023/04/09 07:57:12;;;;;;;1.00;0.85;;;14.70;60.50;;;;;;6399877;22;20476;-78
2023/04/09 07:59:38;;;;;;;1.60;1.10;;;14.70;60.40;;;;;;6401148;22;20019;-78
2023/04/09 08:02:04;;;;;;;1.20;1.00;;;14.80;59.70;;;;;;6399977;22;20005;-77
2023/04/09 08:04:30;;;;;;;1.17;0.82;;;14.80;59.70;;;;;;6398745;22;20002;-78
2023/04/09 08:06:56;;;;;;;1.10;1.00;;;14.90;59.80;;;;;;6400163;22;20020;-78
2023/04/09 08:09:22;;;;;;;1.15;1.05;;;15.00;59.00;;;;;;6400037;22;20002;-79
2023/04/09 08:11:48;;;;;;;0.93;0.90;;;15.00;59.60;;;;;;6399426;22;19998;-79
2023/04/09 08:14:15;;;;;;;0.80;0.80;;;15.10;59.50;;;;;;6399365;22;20006;-78
2023/04/09 08:16:48;;;;;;;1.25;0.90;;;15.20;58.90;;;;;;6397847;22;19998;-78
2023/04/09 08:19:15;;;;;;;1.13;0.80;;;15.30;59.30;;;;;;6398963;22;20005;-80
2023/04/09 08:21:42;;;;;;;1.10;0.95;;;15.30;59.30;;;;;;6400008;22;20002;-78
2023/04/09 08:24:10;;;;;;;4.13;1.25;;;15.40;59.60;;;;;;6399398;22;20316;-79
2023/04/09 08:26:36;;;;;;;1.15;1.02;;;15.50;60.30;;;;;;6399840;22;20176;-78
2023/04/09 08:29:01;;;;;;;2.30;1.17;;;15.60;59.50;;;;;;6399172;22;20059;-77
2023/04/09 08:31:27;;;;;;;1.05;0.90;;;15.60;60.00;;;;;;6398344;22;20404;-78
2023/04/09 08:33:53;;;;;;;1.30;1.00;;;15.80;58.90;;;;;;6397281;22;20412;-78
2023/04/09 08:36:19;;;;;;;0.85;0.80;;;15.80;58.80;;;;;;6399298;22;20090;-86
2023/04/09 08:38:46;;;;;;;1.45;0.95;;;16.00;57.80;;;;;;6398563;22;19998;-78
2023/04/09 08:41:20;;;;;;;0.95;0.82;;;16.00;57.90;;;;;;6400243;22;19998;-77
2023/04/09 08:43:47;;;;;;;1.20;1.02;;;16.00;58.00;;;;;;6372706;22;20108;-78
2023/04/09 08:46:16;;;;;;;1.40;1.20;;;16.10;57.80;;;;;;6399906;22;20006;-77
2023/04/09 08:48:44;;;;;;;1.00;0.90;;;16.10;57.20;;;;;;6401070;22;20002;-82
2023/04/09 08:51:13;;;;;;;1.40;0.93;;;16.20;57.30;;;;;;6400233;22;20483;-82
2023/04/09 08:53:46;;;;;;;1.30;1.08;;;16.30;57.40;;;;;;6400877;22;20002;-81
2023/04/09 08:56:15;;;;;;;1.20;1.10;;;16.40;57.50;;;;;;6402573;22;19994;-83
2023/04/09 08:58:45;;;;;;;1.55;1.17;;;16.50;57.80;;;;;;6402717;22;20316;-83
2023/04/09 09:01:21;;;;;;;;;;;16.60;56.50;;;;;;6403468;22;20025;-84
2023/04/09 09:04:14;;;;;;;0.90;0.80;;;16.60;55.80;;;;;;6403266;22;19902;-82
2023/04/09 09:06:40;;;;;;;1.10;0.77;;;16.70;56.40;;;;;;6396877;22;20006;-77
2023/04/09 09:09:09;;;;;;;1.35;1.15;;;16.90;55.40;;;;;;6401356;22;20006;-77
2023/04/09 09:11:40;;;;;;;1.10;1.00;;;16.90;53.60;;;;;;6403536;22;19994;-77
2023/04/09 09:14:07;;;;;;;1.17;1.08;;;16.90;53.60;;;;;;6403579;22;20010;-77
2023/04/09 09:16:35;;;;;;;1.40;1.30;;;16.90;54.20;;;;;;6403681;22;20327;-77
2023/04/09 09:19:01;;;;;;;1.13;0.90;;;16.80;54.30;;;;;;6403630;22;20391;-77
2023/04/09 09:21:28;;;;;;;2.20;1.13;;;16.90;54.80;;;;;;6403959;22;20076;-77
2023/04/09 09:23:55;;;;;;;1.75;1.13;;;16.90;54.70;;;;;;6403452;22;20417;-76
2023/04/09 09:26:26;;;;;;;1.23;1.13;;;17.10;54.50;;;;;;6375655;22;20079;-77
2023/04/09 09:28:52;;;;;;;1.42;0.90;;;17.20;55.20;;;;;;6403276;22;20027;-77
2023/04/09 09:31:20;;;;;;;1.13;1.02;;;17.40;54.70;;;;;;6403561;22;20005;-77
2023/04/09 09:33:47;;;;;;;1.25;1.15;;;17.60;54.90;;;;;;6375466;22;20006;-77
2023/04/09 09:36:15;;;;;;;1.58;1.20;;;17.90;54.70;;;;;;6403542;22;20030;-77
2023/04/09 09:38:51;;;;;;;1.63;1.17;;;18.00;53.00;;;;;;6402955;22;20396;-77
2023/04/09 09:41:18;;;;;;;1.00;0.90;;;18.20;53.70;;;;;;6403266;22;20307;-77
2023/04/09 09:43:44;;;;;;;1.10;1.00;;;18.40;53.40;;;;;;6403461;22;20005;-77
2023/04/09 09:46:10;;;;;;;1.30;1.20;;;18.40;53.00;;;;;;6404057;22;19998;-77
2023/04/09 09:48:36;;;;;;;1.60;1.20;;;18.50;52.80;;;;;;6403639;22;20173;-77
2023/04/09 09:51:09;;;;;;;1.63;1.30;;;18.50;52.10;;;;;;6403559;22;20327;-77
2023/04/09 09:53:42;;;;;;;1.40;1.20;;;18.70;52.50;;;;;;6402567;22;20388;-77
2023/04/09 09:56:13;;;;;;;2.58;1.40;;;18.80;52.20;;;;;;6403336;22;20424;-77
2023/04/09 09:58:55;;;;;;;1.85;1.50;;;19.00;51.00;;;;;;6403786;22;20002;-77
2023/04/09 10:01:25;;;;;;;1.38;1.08;;;19.10;51.80;;;;;;6403632;22;20044;-77
2023/04/09 10:03:52;;;;;;;6.18;1.10;;;19.30;51.60;;;;;;6403278;22;20445;-77
2023/04/09 10:06:18;;;;;;;1.65;1.20;;;19.40;51.20;;;;;;6403322;22;20002;-77
2023/04/09 10:08:47;;;;;;;1.63;1.30;;;19.50;50.60;;;;;;6402350;22;19998;-77
2023/04/09 10:11:13;;;;;;;2.87;1.20;;;19.60;50.50;;;;;;6403156;22;20074;-77
2023/04/09 10:13:44;;;;;;;1.08;0.98;;;19.80;50.70;;;;;;6403202;22;20037;-77
2023/04/09 10:16:11;;;;;;;1.30;1.20;;;19.90;49.70;;;;;;6402179;22;20008;-77
2023/04/09 10:18:37;;;;;;;1.65;1.23;;;19.90;49.20;;;;;;6403105;22;20085;-78
2023/04/09 10:21:14;;;;;;;1.83;1.30;;;20.00;49.40;;;;;;6402902;22;20024;-78
2023/04/09 10:23:43;;;;;;;1.90;1.50;;;20.20;49.20;;;;;;6402941;22;20002;-78
2023/04/09 10:26:09;;;;;;;2.22;1.25;;;20.20;47.70;;;;;;6402397;22;20002;-78
2023/04/09 10:28:36;;;;;;;1.30;1.20;;;20.30;47.90;;;;;;6402719;22;19998;-78
2023/04/09 10:31:04;;;;;;;1.27;1.15;;;20.40;48.30;;;;;;6402711;22;20005;-78
2023/04/09 10:33:30;;;;;;;1.17;1.08;;;20.50;47.90;;;;;;6403282;22;20001;-78
2023/04/09 10:36:03;;;;;;;1.90;1.40;;;20.60;48.10;;;;;;6403476;22;20018;-78
2023/04/09 10:38:34;;;;;;;1.75;1.30;;;20.80;48.00;;;;;;6402355;22;20006;-78
2023/04/09 10:41:07;;;;;;;1.77;1.42;;;21.00;47.40;;;;;;6403179;22;19998;-78
2023/04/09 10:43:35;;;;;;;2.78;1.30;;;21.10;46.90;;;;;;6403056;22;20005;-78
2023/04/09 10:46:02;;;;;;;1.45;1.15;;;21.10;46.60;;;;;;6402561;22;20076;-78
2023/04/09 10:48:32;;;;;;;1.15;1.05;;;21.10;46.90;;;;;;6403233;22;20006;-78
2023/04/09 10:50:58;;;;;;;2.65;1.05;;;21.30;47.10;;;;;;6402865;22;20069;-78
2023/04/09 10:53:24;;;;;;;1.60;1.20;;;21.40;46.60;;;;;;6403044;22;20022;-78
2023/04/09 10:55:51;;;;;;;2.00;1.13;;;21.50;46.10;;;;;;6402683;22;19998;-77
2023/04/09 10:58:17;;;;;;;1.85;1.52;;;21.70;46.30;;;;;;6402724;22;20465;-78
2023/04/09 11:00:48;;;;;;;1.20;1.10;;;21.90;45.90;;;;;;6374245;22;20089;-78
2023/04/09 11:03:22;;;;;;;2.10;1.60;;;21.90;45.40;;;;;;6402721;22;20002;-78
2023/04/09 11:06:01;;;;;;;1.58;1.20;;;22.00;45.30;;;;;;6402283;22;20323;-78
2023/04/09 11:08:32;;;;;;;1.02;0.93;;;22.10;45.40;;;;;;6402065;22;19998;-77
2023/04/09 11:10:59;;;;;;;1.60;1.40;;;22.20;44.90;;;;;;6374508;22;20308;-76
2023/04/09 11:13:26;;;;;;;1.67;1.58;;;22.20;44.80;;;;;;6389905;22;20017;-76
2023/04/09 11:15:53;;;;;;;2.08;1.45;;;22.30;44.30;;;;;;6400380;22;20065;-76
2023/04/09 11:18:20;;;;;;;1.25;1.02;;;22.30;44.80;;;;;;6401580;22;20030;-76
2023/04/09 11:20:45;;;;;;;2.55;1.33;;;22.40;44.50;;;;;;6401478;22;20002;-76
2023/04/09 11:23:13;;;;;;;2.08;1.50;;;22.50;44.80;;;;;;6401856;22;20018;-77
2023/04/09 11:25:38;;;;;;;1.65;1.50;;;22.50;44.30;;;;;;6401623;22;20073;-76
2023/04/09 11:28:06;;;;;;;1.40;1.30;;;22.40;43.70;;;;;;6401099;22;20026;-76
2023/04/09 11:30:33;;;;;;;1.77;1.48;;;22.30;43.80;;;;;;6401180;22;20069;-77
2023/04/09 11:32:59;;;;;;;1.65;1.35;;;22.40;44.10;;;;;;6401457;22;19998;-76
2023/04/09 11:35:25;;;;;;;1.73;1.50;;;22.90;43.90;;;;;;6401781;22;19994;-76
2023/04/09 11:37:51;;;;;;;1.27;1.17;;;23.90;43.80;;;;;;6399772;22;20005;-77
2023/04/09 11:40:25;;;;;;;1.60;1.05;;;25.10;42.60;;;;;;6401092;22;20495;-77
2023/04/09 11:42:52;;;;;;;1.20;1.10;;;26.30;40.90;;;;;;6401822;22;20409;-77
2023/04/09 11:45:22;;;;;;;1.63;1.38;;;27.10;38.70;;;;;;6401366;22;20002;-76
2023/04/09 11:47:48;;;;;;;1.87;1.50;;;27.10;37.40;;;;;;6401829;22;20013;-76
2023/04/09 11:50:15;;;;;;;1.30;1.20;;;26.70;36.50;;;;;;6401901;22;20323;-76
2023/04/09 11:52:41;;;;;;;1.20;1.10;;;25.90;36.70;;;;;;6401541;22;20025;-77
2023/04/09 11:55:08;;;;;;;1.65;1.50;;;25.10;37.20;;;;;;6401745;22;20066;-77
2023/04/09 11:57:43;;;;;;;1.20;1.02;;;24.30;37.90;;;;;;6401583;22;20012;-76
2023/04/09 12:00:13;;;;;;;1.23;1.13;;;23.60;38.50;;;;;;6400773;22;20002;-76
2023/04/09 12:02:45;;;;;;;1.17;0.90;;;22.60;39.40;;;;;;6401573;22;20022;-76
2023/04/09 12:05:22;;;;;;;2.78;1.45;;;22.40;39.50;;;;;;6401471;22;20008;-76
2023/04/09 12:07:48;;;;;;;1.88;1.33;;;22.10;40.80;;;;;;6401433;22;19998;-82
2023/04/09 12:10:13;;;;;;;1.40;1.00;;;21.70;41.20;;;;;;6401604;22;20089;-82
2023/04/09 12:12:46;;;;;;;2.08;1.10;;;21.40;41.70;;;;;;6401352;22;20010;-82
2023/04/09 12:15:21;;;;;;;1.33;1.10;;;20.90;42.30;;;;;;6400975;22;20081;-82
2023/04/09 12:17:50;;;;;;;4.15;1.02;;;20.80;42.80;;;;;;6401507;22;19998;-83
2023/04/09 12:20:48;;;;;;;1.40;1.20;;;20.60;43.30;;;;;;6401508;22;20021;-82
2023/04/09 12:23:15;;;;;;;1.38;0.93;;;20.40;44.00;;;;;;6370128;22;20002;-82
2023/04/09 12:25:42;;;;;;;1.60;0.95;;;20.20;44.30;;;;;;6401268;22;20028;-82
2023/04/09 12:28:12;;;;;;;2.20;1.63;;;20.10;44.60;;;;;;6403270;22;20009;-82
2023/04/09 12:30:38;;;;;;;1.13;0.95;;;19.90;45.10;;;;;;6402956;22;19998;-82
2023/04/09 12:33:04;;;;;;;1.23;0.90;;;19.80;45.10;;;;;;6403217;22;20476;-81
2023/04/09 12:35:30;;;;;;;1.10;0.80;;;19.60;45.70;;;;;;6403644;22;20323;-82
2023/04/09 12:37:58;;;;;;;1.98;1.00;;;19.50;45.70;;;;;;6403322;22;20081;-82
2023/04/09 12:40:24;;;;;;;0.77;0.77;;;19.40;46.00;;;;;;6403481;22;20492;-82
2023/04/09 12:42:50;;;;;;;2.63;1.20;;;19.30;46.70;;;;;;6403522;22;20009;-82
2023/04/09 12:45:17;;;;;;;2.58;0.70;;;19.20;47.60;;;;;;6403044;22;20001;-82
2023/04/09 12:47:43;;;;;;;2.17;0.90;;;19.10;47.90;;;;;;6403430;22;19998;-82
2023/04/09 12:50:10;;;;;;;1.30;1.02;;;19.00;47.70;;;;;;6403596;22;20005;-82
2023/04/09 12:52:36;;;;;;;1.55;0.73;;;19.00;47.10;;;;;;6375423;22;20327;-82